Delta, Utah Weather observations

Data are for observation ending at time listed.
 Day   Time    Ave.   Ave.  Ave.  Vector   Max.   Stn.    Total    Solar   Ave.  
  of    of     Air    Rel.  Wind   Wind    Wind   Baro.  Precip.   Rad.    Soil  
Year   Day     Temp.  Hum.  Speed  Dir.    Gust   Pres.                    Temp. 
2014   (MST)    F      %     mph   deg.    mph     mb.     in.     W/m2     F   
------------------------------------------------------------------------------
 330    7:40   26.6    77    0.0     0      0.0   871.6    0.00       4    99999.0
 330    7:50   26.5    77    0.1    11      2.0   871.7    0.00       6    99999.0
 330    8:00   26.3    78    1.2    14      2.4   871.7    0.00       7    99999.0
 330    8:10   26.4    78    0.5    80      1.5   871.7    0.00      43    99999.0
 330    8:20   28.4    74    0.6   109      1.5   871.9    0.00      47    99999.0
 330    8:30   29.7    72    0.1   152      0.9   871.9    0.00      59    99999.0
 330    8:40   32.6    67    0.6   138      1.6   872.0    0.00      55    99999.0
 330    8:50   33.5    64    0.8   104      1.5   872.0    0.00      63    99999.0
 330    9:00   34.6    61    0.9   133      2.4   872.1    0.00      85    99999.0
 330    9:10   35.9    60    0.9   140      2.0   872.1    0.00      70    99999.0
 330    9:20   36.9    58    1.4   158      2.3   872.2    0.00     125    99999.0
 330    9:30   37.5    56    3.1   156      5.7   872.3    0.00      90    99999.0
 330    9:40   37.3    57    2.9   143      5.1   872.4    0.00     229    99999.0
 330    9:50   38.1    56    2.6   133      4.1   872.4    0.00     179    99999.0
 330   10:00   38.7    56    2.5   166      4.5   872.6    0.00     211    99999.0
 330   10:10   39.1    54    2.6   176      4.2   872.7    0.00     224    99999.0
 330   10:20   39.9    54    2.5   171      4.5   872.7    0.00     225    99999.0
 330   10:30   39.9    54    2.8   198      4.6   872.7    0.00     214    99999.0
 330   10:40   41.0    53    2.2   178      3.9   872.8    0.00     167    99999.0
 330   10:50   42.2    52    2.2   188      3.8   872.8    0.00     261    99999.0
 330   11:00   43.4    50    1.4   237      2.7   872.7    0.00     176    99999.0
 330   11:10   44.4    47    1.4   173      2.6   872.6    0.00     274    99999.0
 330   11:20   45.4    45    1.6   191      3.7   872.6    0.00     269    99999.0
 330   11:30   46.6    42    1.8   238      4.2   872.4    0.00     250    99999.0
 330   11:40   47.3    39    2.5   209      4.6   872.2    0.00     337    99999.0
 330   11:50   47.7    40    2.9   182      5.2   872.0    0.00     144    99999.0
 330   12:00   48.4    40    2.5   196      4.2   871.8    0.00     126    99999.0
 330   12:10   49.2    39    3.3   212      5.6   871.7    0.00     126    99999.0
 330   12:20   50.2    38    3.3   206      6.0   871.6    0.00     182    99999.0
 330   12:30   50.9    37    3.5   205      6.4   871.6    0.00     205    99999.0
 330   12:40   51.6    36    3.5   198      5.9   871.5    0.00     312    99999.0
 330   12:50   52.1    36    3.9   211      7.4   871.3    0.00     246    99999.0
 330   13:00   52.4    35    3.8   186      8.2   871.2    0.00     186    99999.0
 330   13:10   53.4    34    2.9   207      4.7   871.1    0.00     235    99999.0
 330   13:20   54.0    33    3.5   198      6.0   871.1    0.00     372    99999.0
 330   13:30   54.3    33    2.8   205      7.2   871.0    0.00     260    99999.0
 330   13:40   54.7    33    3.2   243      5.6   870.9    0.00     293    99999.0
 330   13:50   54.7    33    2.3   239      4.6   870.8    0.00     251    99999.0
 330   14:00   55.3    32    2.4   235      5.1   870.7    0.00     230    99999.0
 330   14:10   55.5    32    2.1   234      4.5   870.6    0.00     195    99999.0
 330   14:20   56.4    31    1.5   230      3.7   870.6    0.00      71    99999.0
 330   14:30   56.7    31    2.1   171      4.2   870.4    0.00      61    99999.0
 330   14:40   56.4    31    2.3   167      4.5   870.4    0.00      72    99999.0
 330   14:50   56.4    31    2.0   173      4.8   870.4    0.00     168    99999.0
 330   15:00   57.6    30    1.7   251      3.9   870.4    0.00     145    99999.0
 330   15:10   57.3    30    2.7   212      4.7   870.3    0.00     156    99999.0
 330   15:20   58.3    29    1.5   227      3.7   870.3    0.00     209    99999.0
 330   15:30   58.4    29    1.6   173      2.9   870.4    0.00     108    99999.0
 330   15:40   58.0    30    1.6   198      4.2   870.4    0.00     115    99999.0
 330   15:50   57.5    30    1.6   229      2.9   870.4    0.00      76    99999.0
 330   16:00   57.4    30    1.4   174      2.7   870.5    0.00      85    99999.0
 330   16:10   57.0    31    0.5   136      2.2   870.6    0.00      36    99999.0
 330   16:20   56.7    31    0.9   222      2.0   870.6    0.00      28    99999.0
 330   16:30   56.6    31    0.6   230      2.0   870.6    0.00      25    99999.0
 330   16:40   56.3    32    0.6   150      1.2   870.5    0.00      30    99999.0
 330   16:50   56.0    32    1.3   182      1.8   870.4    0.00      15    99999.0
 330   17:00   55.3    33    0.4   171      1.4   870.4    0.00       7    99999.0
 330   17:10   53.5    35    0.0     0      0.0   870.3    0.00       6    99999.0
 330   17:20   51.7    38    0.0     0      0.0   870.2    0.00       1    99999.0
 330   17:30   50.2    40    0.0     0      0.0   870.3    0.00       0    99999.0
 330   17:40   48.8    43    0.2   182      1.2   870.2    0.00       0    99999.0
 330   17:50   48.3    44    0.5   188      1.3   870.2    0.00       0    99999.0
 330   18:00   47.3    46    0.0   344      0.4   870.3    0.00       0    99999.0
 330   18:10   46.0    48    0.0     0      0.0   870.3    0.00       0    99999.0
 330   18:20   45.2    50    0.0     0      0.0   870.3    0.00       0    99999.0
 330   18:30   45.2    50    0.0     0      0.0   870.3    0.00       0    99999.0
 330   18:40   45.0    50    1.1    83      2.8   870.4    0.00       0    99999.0
 330   18:50   44.5    52    1.2    61      1.8   870.5    0.00       0    99999.0
 330   19:00   43.8    53    0.7    59      1.2   870.5    0.00       0    99999.0
 330   19:10   43.4    54    0.8    51      1.2   870.5    0.00       0    99999.0
 330   19:20   43.1    54    1.0    47      1.5   870.5    0.00       0    99999.0
 330   19:30   42.4    56    0.6    47      1.1   870.6    0.00       0    99999.0
 330   19:40   42.3    55    0.7    17      2.5   870.6    0.00       0    99999.0
 330   19:50   41.8    56    2.0    11      2.9   870.6    0.00       0    99999.0
 330   20:00   41.3    57    1.8     3      2.9   870.6    0.00       0    99999.0
 330   20:10   41.3    57    0.8    45      1.9   870.5    0.00       0    99999.0
 330   20:20   40.9    57    1.1    92      2.2   870.5    0.00       0    99999.0
 330   20:30   40.7    57    0.8   194      2.9   870.5    0.00       0    99999.0
 330   20:40   39.4    59    1.1   159      1.8   870.4    0.00       0    99999.0
 330   20:50   38.5    60    2.1   197      3.6   870.3    0.00       0    99999.0
 330   21:00   37.5    63    1.5   232      3.1   870.4    0.00       0    99999.0
 330   21:10   37.1    64    1.4   248      2.4   870.5    0.00       0    99999.0
 330   21:20   37.1    66    1.6   237      2.6   870.6    0.00       0    99999.0
 330   21:30   37.4    65    1.0   269      1.5   870.7    0.00       0    99999.0
 330   21:40   37.2    65    0.6   277      1.2   870.7    0.00       0    99999.0
 330   21:50   36.2    67    1.9   356      2.9   870.9    0.00       0    99999.0
 330   22:00   34.9    70    1.2   356      2.0   870.9    0.00       0    99999.0
 330   22:10   34.2    72    1.9    13      3.5   871.0    0.00       0    99999.0
 330   22:20   33.7    72    1.8     2      4.7   871.0    0.00       0    99999.0
 330   22:30   33.7    72    1.3    16      2.5   870.9    0.00       0    99999.0
 330   22:40   33.8    71    0.9    29      1.9   870.8    0.00       0    99999.0
 330   22:50   33.5    72    0.1    76      1.2   870.8    0.00       0    99999.0
 330   23:00   33.6    72    1.0   104      1.7   870.8    0.00       0    99999.0
 330   23:10   34.0    71    0.7   122      1.9   870.8    0.00       0    99999.0
 330   23:20   34.0    71    0.5   122      1.5   870.8    0.00       0    99999.0
 330   23:30   33.9    71    0.6    96      1.6   870.8    0.00       0    99999.0
 330   23:40   33.7    71    0.4    65      1.4   870.9    0.00       0    99999.0
 330   23:50   33.9    70    0.3   104      1.1   870.8    0.00       0    99999.0
 331    0:00   33.6    70    0.0   104      0.4   870.7    0.00       0    99999.0
 331    0:10   32.9    71    0.0     0      0.0   870.7    0.00       0    99999.0
 331    0:20   33.2    71    0.6   140      2.7   870.9    0.00       0    99999.0
 331    0:30   31.0    72    2.0   179      3.8   870.9    0.00       0    99999.0
 331    0:40   29.4    75    0.5    78      1.2   870.9    0.00       0    99999.0
 331    0:50   29.3    76    1.3    74      2.0   870.8    0.00       0    99999.0
 331    1:00   29.6    76    1.4    45      2.0   870.8    0.00       0    99999.0
 331    1:10   29.6    76    0.9    34      2.1   870.8    0.00       0    99999.0
 331    1:20   29.5    76    0.6    22      1.3   870.7    0.00       0    99999.0
 331    1:30   29.5    76    0.3    21      1.5   870.7    0.00       0    99999.0
 331    1:40   29.9    75    0.5    12      1.6   870.7    0.00       0    99999.0
 331    1:50   30.1    74    0.0     0      0.0   870.7    0.00       0    99999.0
 331    2:00   30.3    74    0.0     0      0.0   870.6    0.00       0    99999.0
 331    2:10   30.4    74    0.0     0      0.0   870.6    0.00       0    99999.0
 331    2:20   30.6    73    0.6   112      1.3   870.6    0.00       0    99999.0
 331    2:30   31.3    71    0.6    62      1.7   870.7    0.00       0    99999.0
 331    2:40   31.2    70    1.0    93      1.8   870.7    0.00       0    99999.0
 331    2:50   31.1    70    0.5   334      1.4   870.8    0.00       0    99999.0
 331    3:00   31.0    70    0.0   286      0.7   870.7    0.00       0    99999.0
 331    3:10   30.8    70    0.0    36      0.1   870.7    0.00       0    99999.0
 331    3:20   30.8    69    1.4    26      2.1   870.6    0.00       0    99999.0
 331    3:30   30.3    70    0.9     9      1.8   870.7    0.00       0    99999.0
 331    3:40   30.1    70    0.0     0      0.0   870.6    0.00       0    99999.0
 331    3:50   30.1    70    0.3   126      0.8   870.5    0.00       0    99999.0
 331    4:00   30.3    70    0.2   126      0.8   870.4    0.00       0    99999.0
 331    4:10   30.5    70    1.2    86      2.5   870.4    0.00       0    99999.0
 331    4:20   30.5    70    0.5   100      1.5   870.3    0.00       0    99999.0
 331    4:30   30.7    70    0.8   116      2.0   870.1    0.00       0    99999.0
 331    4:40   30.4    71    1.2   112      2.3   870.1    0.00       0    99999.0
 331    4:50   30.1    74    1.4    93      2.6   870.1    0.00       0    99999.0
 331    5:00   30.1    75    1.3    92      2.6   870.1    0.00       0    99999.0
 331    5:10   30.1    76    1.4    54      3.2   870.2    0.00       0    99999.0
 331    5:20   30.2    76    0.4    50      1.5   870.1    0.00       0    99999.0
 331    5:30   30.3    75    0.8    51      1.5   870.1    0.00       0    99999.0
 331    5:40   30.4    75    0.9    40      1.2   870.1    0.00       0    99999.0
 331    5:50   30.6    75    0.4    56      1.5   870.0    0.00       0    99999.0
 331    6:00   30.9    74    0.4   137      1.4   869.9    0.00       0    99999.0
 331    6:10   30.8    73    1.0   107      2.5   869.8    0.00       0    99999.0
 331    6:20   29.7    75    1.9   102      2.8   869.9    0.00       0    99999.0
 331    6:30   28.6    76    1.8    92      2.7   869.8    0.00       0    99999.0
 331    6:40   28.4    76    2.0    96      2.9   869.8    0.00       0    99999.0
 331    6:50   28.4    76    1.6   106      3.3   869.7    0.00       0    99999.0
 331    7:00   28.4    77    1.8    94      3.3   869.8    0.00       0    99999.0
 331    7:10   28.3    77    1.3    85      2.3   869.8    0.00       0    99999.0
 331    7:20   28.4    77    1.7    87      2.5   869.8    0.00       0    99999.0
 331    7:30   28.5    77    2.3    90      3.2   869.8    0.00       5    99999.0

Return to Delta, Utah graphs page.


Western Regional Climate Center,wrcc@dri.edu